createdAt,value
2018-06-19T00:00:41.495Z,67.83
2018-06-19T00:03:11.302Z,69.24
2018-06-19T00:05:41.160Z,69.02
2018-06-19T00:08:10.921Z,69.62
2018-06-19T00:10:40.758Z,69.14
2018-06-19T00:13:10.586Z,68.95
2018-06-19T00:15:40.389Z,69.79
2018-06-19T00:18:23.142Z,70.98
2018-06-19T00:20:55.643Z,70.25
2018-06-19T00:23:25.526Z,71.33
2018-06-19T00:25:55.283Z,71.20
2018-06-19T00:28:25.410Z,72.07
2018-06-19T00:30:55.147Z,72.24
2018-06-19T00:33:25.055Z,72.02
2018-06-19T00:35:55.007Z,71.68
2018-06-19T00:38:24.828Z,72.49
2018-06-19T00:40:54.658Z,71.84
2018-06-19T00:43:24.454Z,73.12
2018-06-19T00:45:54.524Z,72.84
2018-06-19T00:48:25.013Z,73.06
2018-06-19T00:50:56.494Z,73.14
2018-06-19T00:53:26.350Z,72.72
2018-06-19T00:56:06.126Z,72.88
2018-06-19T00:58:38.015Z,73.91
2018-06-19T01:01:07.738Z,74.96
2018-06-19T01:03:37.606Z,74.53
2018-06-19T01:06:07.550Z,74.75
2018-06-19T01:08:38.221Z,74.53
2018-06-19T01:11:09.113Z,74.33
2018-06-19T01:13:38.998Z,74.47
2018-06-19T01:16:09.590Z,75.10
2018-06-19T01:18:41.246Z,75.27
2018-06-19T01:21:11.485Z,75.00
2018-06-19T01:23:41.393Z,75.75
2018-06-19T01:26:11.234Z,75.40
2018-06-19T01:28:44.901Z,75.85
2018-06-19T01:31:15.038Z,75.98
2018-06-19T01:33:44.856Z,76.18
2018-06-19T01:36:15.079Z,75.86
2018-06-19T01:38:45.702Z,75.78
2018-06-19T01:41:15.682Z,76.12
2018-06-19T01:43:46.142Z,75.68
2018-06-19T01:46:16.006Z,76.37
2018-06-19T01:48:46.028Z,76.11
2018-06-19T01:51:16.548Z,76.01
2018-06-19T01:53:47.432Z,76.22
2018-06-19T01:56:17.226Z,76.51
2018-06-19T01:58:47.060Z,76.02
2018-06-19T02:01:17.660Z,76.26
2018-06-19T02:03:47.540Z,75.38
2018-06-19T02:06:17.379Z,76.04
2018-06-19T02:08:47.129Z,75.58
2018-06-19T02:11:16.549Z,75.63
2018-06-19T02:13:46.397Z,75.09
2018-06-19T02:16:16.148Z,75.31
2018-06-19T02:18:46.096Z,74.35
2018-06-19T02:21:16.498Z,74.62
2018-06-19T02:23:46.420Z,74.50
2018-06-19T02:26:16.935Z,74.11
2018-06-19T02:28:46.753Z,74.66
2018-06-19T02:31:16.720Z,74.15
2018-06-19T02:33:46.478Z,74.08
2018-06-19T02:36:16.270Z,74.41
2018-06-19T02:38:46.056Z,74.17
2018-06-19T02:41:15.858Z,74.02
2018-06-19T02:43:46.239Z,73.53
2018-06-19T02:46:15.703Z,73.82
2018-06-19T02:48:46.445Z,74.19
2018-06-19T02:51:16.424Z,73.84
2018-06-19T02:53:46.197Z,73.82
2018-06-19T02:56:16.697Z,73.61
2018-06-19T02:58:46.531Z,73.65
2018-06-19T03:01:17.023Z,73.95
2018-06-19T03:03:46.894Z,73.75
2018-06-19T03:06:16.788Z,73.92
2018-06-19T03:08:46.474Z,73.74
2018-06-19T03:11:16.291Z,73.72
2018-06-19T03:13:47.093Z,73.38
2018-06-19T03:16:18.207Z,73.81
2018-06-19T03:18:48.133Z,73.46
2018-06-19T03:21:18.035Z,73.74
2018-06-19T03:23:55.589Z,73.76
2018-06-19T03:26:25.605Z,73.74
2018-06-19T03:28:55.561Z,73.59
2018-06-19T03:31:25.412Z,72.77
2018-06-19T03:33:55.900Z,72.11
2018-06-19T03:36:26.296Z,71.81
2018-06-19T03:38:56.153Z,71.61
2018-06-19T03:41:26.006Z,71.18
2018-06-19T03:43:56.975Z,70.50
2018-06-19T03:46:27.105Z,70.33
2018-06-19T03:48:58.322Z,70.31
2018-06-19T03:51:28.299Z,70.14
2018-06-19T03:53:58.075Z,69.75
2018-06-19T03:56:28.513Z,69.79
2018-06-19T03:58:59.625Z,69.77
2018-06-19T04:01:29.417Z,69.97
2018-06-19T04:03:59.233Z,69.37
2018-06-19T04:06:31.608Z,69.37
2018-06-19T04:09:04.811Z,68.97
2018-06-19T04:11:35.457Z,68.39
2018-06-19T04:14:05.309Z,68.96
2018-06-19T04:16:36.196Z,67.84
2018-06-19T04:19:06.062Z,67.77
2018-06-19T04:21:36.704Z,66.95
2018-06-19T04:24:07.085Z,66.31
2018-06-19T04:26:38.050Z,65.49
2018-06-19T04:29:07.816Z,65.65
2018-06-19T04:31:37.665Z,64.90
2018-06-19T04:34:07.896Z,64.52
2018-06-19T04:36:37.857Z,63.37
2018-06-19T04:39:11.865Z,63.03
2018-06-19T04:41:42.080Z,62.50
2018-06-19T04:44:11.835Z,61.66
2018-06-19T04:46:41.993Z,60.67
2018-06-19T04:49:12.876Z,61.63
2018-06-19T04:51:43.003Z,61.02
2018-06-19T04:54:12.939Z,60.56
2018-06-19T04:56:43.592Z,60.27
2018-06-19T04:59:14.163Z,60.17
2018-06-19T05:01:44.698Z,60.26
2018-06-19T05:04:14.706Z,59.50
2018-06-19T05:06:44.562Z,59.31
2018-06-19T05:09:15.942Z,60.40
2018-06-19T05:11:46.553Z,60.14
2018-06-19T05:14:17.260Z,60.22
2018-06-19T05:16:48.664Z,60.15
2018-06-19T05:19:19.141Z,59.70
2018-06-19T05:21:49.335Z,59.42
2018-06-19T05:24:20.184Z,58.87
2018-06-19T05:26:50.496Z,58.88
2018-06-19T05:29:20.252Z,59.18
2018-06-19T05:31:50.044Z,59.95
2018-06-19T05:34:19.840Z,60.27
2018-06-19T05:36:49.626Z,60.79
2018-06-19T05:39:19.515Z,60.78
2018-06-19T05:41:49.340Z,59.33
2018-06-19T05:44:19.403Z,58.46
2018-06-19T05:46:49.197Z,58.70
2018-06-19T05:49:19.014Z,57.39
2018-06-19T05:51:48.796Z,56.82
2018-06-19T05:54:18.858Z,55.95
2018-06-19T05:56:50.412Z,55.65
2018-06-19T05:59:20.194Z,55.93
2018-06-19T06:01:50.580Z,55.62
2018-06-19T06:04:20.686Z,55.78
2018-06-19T06:06:50.583Z,57.85
2018-06-19T06:09:20.512Z,58.38
2018-06-19T06:11:50.244Z,58.12
2018-06-19T06:14:20.020Z,57.21
2018-06-19T06:16:49.868Z,56.40
2018-06-19T06:19:19.654Z,56.49
2018-06-19T06:21:49.391Z,56.28
2018-06-19T06:24:19.156Z,55.36
2018-06-19T06:26:48.954Z,55.01
2018-06-19T06:29:18.760Z,54.15
2018-06-19T06:31:49.436Z,54.69
2018-06-19T06:34:19.265Z,54.16
2018-06-19T06:36:49.091Z,53.61
2018-06-19T06:39:19.111Z,53.59
2018-06-19T06:41:48.936Z,53.59
2018-06-19T06:44:18.864Z,52.57
2018-06-19T06:46:48.734Z,52.05
2018-06-19T06:49:18.515Z,52.29
2018-06-19T06:51:48.304Z,52.79
2018-06-19T06:54:18.056Z,52.72
2018-06-19T06:56:47.794Z,53.99
2018-06-19T06:59:17.645Z,54.69
2018-06-19T07:01:47.420Z,55.65
2018-06-19T07:04:17.174Z,56.13
2018-06-19T07:06:46.898Z,55.83
2018-06-19T07:09:16.692Z,54.99
2018-06-19T07:11:46.400Z,54.42
2018-06-19T07:14:16.233Z,52.48
2018-06-19T07:16:46.063Z,50.50
2018-06-19T07:19:15.869Z,50.10
2018-06-19T07:21:45.671Z,48.87
2018-06-19T07:24:15.402Z,48.84
2018-06-19T07:26:45.157Z,48.72
2018-06-19T07:29:14.960Z,48.23
2018-06-19T07:31:44.755Z,49.03
2018-06-19T07:34:14.512Z,48.81
2018-06-19T07:36:44.236Z,48.54
2018-06-19T07:39:13.960Z,49.19
2018-06-19T07:41:43.826Z,48.65
2018-06-19T07:44:13.823Z,49.56
2018-06-19T07:46:43.623Z,49.66
2018-06-19T07:49:13.623Z,49.24
2018-06-19T07:51:43.419Z,47.60
2018-06-19T07:54:13.199Z,46.35
2018-06-19T07:56:42.959Z,45.69
2018-06-19T07:59:12.667Z,45.62
2018-06-19T08:01:42.498Z,44.78
2018-06-19T08:04:12.374Z,44.53
2018-06-19T08:06:42.227Z,43.42
2018-06-19T08:09:12.457Z,43.23
2018-06-19T08:11:42.327Z,42.81
2018-06-19T08:14:12.136Z,43.42
2018-06-19T08:16:42.019Z,43.47
2018-06-19T08:19:11.756Z,44.01
2018-06-19T08:21:41.538Z,44.14
2018-06-19T08:24:11.435Z,44.54
2018-06-19T08:26:41.380Z,44.70
2018-06-19T08:29:11.198Z,44.31
2018-06-19T08:31:40.922Z,45.13
2018-06-19T08:34:10.747Z,46.11
2018-06-19T08:36:40.699Z,45.67
2018-06-19T08:39:12.937Z,45.91
2018-06-19T08:41:44.016Z,48.20
2018-06-19T08:44:14.390Z,48.64
2018-06-19T08:46:44.143Z,49.70
2018-06-19T08:49:14.493Z,48.39
2018-06-19T08:51:44.284Z,48.05
2018-06-19T08:54:14.111Z,48.29
2018-06-19T08:56:43.863Z,47.18
2018-06-19T08:59:13.623Z,47.43
2018-06-19T09:01:43.374Z,46.00
2018-06-19T09:04:13.236Z,46.02
2018-06-19T09:06:43.066Z,45.18
2018-06-19T09:09:13.159Z,45.05
2018-06-19T09:11:43.021Z,43.95
2018-06-19T09:14:12.767Z,43.44
2018-06-19T09:16:42.507Z,42.45
2018-06-19T09:19:12.214Z,44.54
2018-06-19T09:21:41.991Z,45.04
2018-06-19T09:24:11.715Z,45.96
2018-06-19T09:26:41.537Z,45.90
2018-06-19T09:29:11.253Z,44.99
2018-06-19T09:31:41.161Z,44.92
2018-06-19T09:34:10.899Z,46.23
2018-06-19T09:36:40.808Z,47.55
2018-06-19T09:39:12.857Z,48.60
2018-06-19T09:41:43.985Z,49.99
2018-06-19T09:44:13.783Z,48.98
2018-06-19T09:46:43.619Z,47.39
2018-06-19T09:49:13.406Z,45.24
2018-06-19T09:51:44.006Z,44.16
2018-06-19T09:54:13.798Z,43.50
2018-06-19T09:56:43.683Z,44.41
2018-06-19T09:59:13.464Z,44.98
2018-06-19T10:01:43.539Z,45.75
2018-06-19T10:04:13.336Z,45.32
2018-06-19T10:06:43.169Z,43.89
2018-06-19T10:09:12.914Z,45.74
2018-06-19T10:11:42.742Z,46.74
2018-06-19T10:14:12.522Z,46.89
2018-06-19T10:16:42.334Z,45.91
2018-06-19T10:19:12.144Z,46.75
2018-06-19T10:21:42.146Z,47.70
2018-06-19T10:24:11.907Z,48.14
2018-06-19T10:26:41.734Z,47.41
2018-06-19T10:29:11.551Z,46.83
2018-06-19T10:31:41.325Z,46.77
2018-06-19T10:34:11.091Z,46.76
2018-06-19T10:36:40.906Z,45.57
2018-06-19T10:39:11.668Z,43.49
2018-06-19T10:41:41.466Z,40.94
2018-06-19T10:44:11.249Z,39.65
2018-06-19T10:46:41.000Z,38.24
2018-06-19T10:49:10.752Z,38.23
2018-06-19T10:51:40.528Z,40.22
2018-06-19T10:54:10.648Z,40.40
2018-06-19T10:56:40.352Z,39.99
2018-06-19T10:59:10.205Z,38.90
2018-06-19T11:01:39.966Z,38.78
2018-06-19T11:04:09.722Z,40.45
2018-06-19T11:06:39.525Z,41.79
2018-06-19T11:09:11.086Z,42.82
2018-06-19T11:11:40.990Z,42.89
2018-06-19T11:14:10.829Z,42.71
2018-06-19T11:16:40.670Z,41.44
2018-06-19T11:19:10.416Z,40.36
2018-06-19T11:21:40.202Z,38.25
2018-06-19T11:24:09.894Z,36.96
2018-06-19T11:26:39.722Z,36.63
2018-06-19T11:29:09.548Z,36.00
2018-06-19T11:31:39.238Z,37.53
2018-06-19T11:34:08.998Z,38.86
2018-06-19T11:36:38.733Z,41.24
2018-06-19T11:39:12.634Z,42.50
2018-06-19T11:41:43.201Z,44.51
2018-06-19T11:44:13.007Z,45.03
2018-06-19T11:46:42.850Z,45.72
2018-06-19T11:49:12.709Z,44.49
2018-06-19T11:51:42.567Z,43.77
2018-06-19T11:54:12.393Z,43.30
2018-06-19T11:56:42.228Z,42.28
2018-06-19T11:59:12.048Z,41.84
2018-06-19T12:01:41.874Z,40.73
2018-06-19T12:04:11.610Z,40.35
2018-06-19T12:06:41.422Z,41.41
2018-06-19T12:09:11.683Z,40.90
2018-06-19T12:11:41.892Z,40.87
2018-06-19T12:14:12.534Z,39.57
2018-06-19T12:16:42.274Z,36.96
2018-06-19T12:19:11.970Z,34.55
2018-06-19T12:21:41.700Z,32.86
2018-06-19T12:24:11.531Z,31.42
2018-06-19T12:26:41.448Z,30.87
2018-06-19T12:29:11.650Z,30.07
2018-06-19T12:31:41.432Z,30.92
2018-06-19T12:34:11.716Z,30.74
2018-06-19T12:36:41.634Z,30.39
2018-06-19T12:39:12.352Z,30.82
2018-06-19T12:41:47.253Z,30.52
2018-06-19T12:44:16.948Z,30.98
2018-06-19T12:46:46.737Z,31.75
2018-06-19T12:49:26.158Z,31.92
2018-06-19T12:52:13.414Z,31.06
2018-06-19T12:55:26.545Z,30.90
2018-06-19T12:57:56.316Z,29.17
2018-06-19T13:00:26.853Z,28.71
2018-06-19T13:03:13.610Z,28.83
2018-06-19T13:06:33.206Z,28.65
2018-06-19T13:09:03.028Z,28.60
2018-06-19T13:11:35.195Z,28.49
2018-06-19T13:14:21.641Z,29.28
2018-06-19T13:17:08.147Z,29.42
2018-06-19T13:19:54.637Z,29.57
2018-06-19T13:22:24.593Z,28.96
2018-06-19T13:24:54.563Z,28.70
2018-06-19T13:27:24.309Z,29.10
2018-06-19T13:30:12.033Z,28.29
2018-06-19T13:32:41.913Z,27.46
2018-06-19T13:35:11.733Z,27.78
2018-06-19T13:37:41.512Z,27.51
2018-06-19T13:41:26.990Z,27.12
2018-06-19T13:44:14.419Z,27.32
2018-06-19T13:46:44.179Z,28.77
2018-06-19T13:49:13.881Z,27.28
2018-06-19T13:51:43.632Z,27.38
2018-06-19T13:54:13.407Z,27.24
2018-06-19T13:57:27.372Z,27.95
2018-06-19T13:59:57.221Z,27.62
2018-06-19T14:02:27.151Z,26.67
2018-06-19T14:04:57.357Z,27.59
2018-06-19T14:07:28.182Z,27.82
2018-06-19T14:10:14.882Z,27.66
2018-06-19T14:13:05.936Z,28.14
2018-06-19T14:15:38.258Z,29.45
2018-06-19T14:18:08.657Z,28.54
2018-06-19T14:20:38.975Z,29.00
2018-06-19T14:23:08.804Z,28.30
2018-06-19T14:25:38.590Z,29.72
2018-06-19T14:28:08.393Z,30.35
2018-06-19T14:30:38.168Z,30.59
2018-06-19T14:33:09.403Z,29.71
2018-06-19T14:35:40.828Z,29.54
2018-06-19T14:38:10.400Z,29.78
2018-06-19T14:40:40.350Z,30.75
2018-06-19T14:43:12.527Z,31.33
2018-06-19T14:45:42.712Z,30.94
2018-06-19T14:48:12.628Z,31.99
2018-06-19T14:50:42.446Z,32.99
2018-06-19T14:53:12.392Z,33.02
2018-06-19T14:55:42.136Z,33.47
2018-06-19T14:58:11.982Z,34.24
2018-06-19T15:00:41.780Z,34.45
2018-06-19T15:03:11.543Z,34.46
2018-06-19T15:05:41.340Z,34.99
2018-06-19T15:08:11.269Z,34.41
2018-06-19T15:10:41.254Z,35.13
2018-06-19T15:13:10.980Z,35.59
2018-06-19T15:15:40.803Z,35.22
2018-06-19T15:18:10.595Z,35.82
2018-06-19T15:20:41.148Z,36.77
2018-06-19T15:23:10.948Z,36.50
2018-06-19T15:25:40.865Z,36.72
2018-06-19T15:28:10.779Z,36.79
2018-06-19T15:30:40.540Z,36.87
2018-06-19T15:33:10.792Z,37.18
2018-06-19T15:35:40.843Z,37.18
2018-06-19T15:38:11.832Z,37.35
2018-06-19T15:40:44.182Z,37.33
2018-06-19T15:43:14.112Z,37.23
2018-06-19T15:45:43.976Z,37.72
2018-06-19T15:48:14.151Z,38.47
2018-06-19T15:50:44.294Z,37.63
2018-06-19T15:53:14.068Z,38.46
2018-06-19T15:55:43.857Z,38.39
2018-06-19T15:58:13.691Z,38.86
2018-06-19T16:00:43.528Z,39.62
2018-06-19T16:03:13.360Z,39.91
2018-06-19T16:05:43.221Z,39.64
2018-06-19T16:08:19.362Z,39.63
2018-06-19T16:10:50.132Z,40.55
2018-06-19T16:13:19.854Z,40.40
2018-06-19T16:15:49.695Z,40.14
2018-06-19T16:18:19.172Z,40.17
2018-06-19T16:20:49.014Z,40.04
2018-06-19T16:23:18.825Z,40.02
2018-06-19T16:25:48.325Z,39.73
2018-06-19T16:28:18.121Z,40.76
2018-06-19T16:30:47.976Z,40.74
2018-06-19T16:33:17.859Z,40.40
2018-06-19T16:35:47.656Z,40.94
2018-06-19T16:38:17.536Z,40.84
2018-06-19T16:40:47.393Z,40.38
2018-06-19T16:43:17.347Z,41.07
2018-06-19T16:45:47.447Z,41.23
2018-06-19T16:48:17.242Z,41.02
2018-06-19T16:50:47.246Z,40.33
2018-06-19T16:53:17.499Z,41.03
2018-06-19T16:55:47.466Z,41.28
2018-06-19T16:58:17.267Z,40.38
2018-06-19T17:00:47.255Z,41.15
2018-06-19T17:03:17.062Z,41.67
2018-06-19T17:05:46.909Z,41.93
2018-06-19T17:08:16.855Z,41.53
2018-06-19T17:10:46.671Z,41.93
2018-06-19T17:13:16.543Z,41.82
2018-06-19T17:15:46.484Z,41.83
2018-06-19T17:18:16.396Z,42.22
2018-06-19T17:20:46.275Z,42.41
2018-06-19T17:23:16.153Z,42.70
2018-06-19T17:25:46.062Z,43.30
2018-06-19T17:28:15.859Z,43.20
2018-06-19T17:30:45.697Z,43.65
2018-06-19T17:33:15.273Z,43.47
2018-06-19T17:35:46.573Z,43.46
2018-06-19T17:38:16.943Z,43.57
2018-06-19T17:40:47.128Z,43.24
2018-06-19T17:43:17.039Z,43.71
2018-06-19T17:45:47.143Z,43.51
2018-06-19T17:48:17.181Z,43.76
2018-06-19T17:50:47.257Z,44.28
2018-06-19T17:53:17.938Z,44.63
2018-06-19T17:55:48.011Z,45.21
2018-06-19T17:58:18.114Z,44.83
2018-06-19T18:01:02.415Z,44.94
2018-06-19T18:03:32.368Z,45.00
2018-06-19T18:06:02.717Z,44.42
2018-06-19T18:08:32.907Z,45.42
2018-06-19T18:11:03.235Z,45.26
2018-06-19T18:13:33.057Z,45.12
2018-06-19T18:16:02.989Z,45.25
2018-06-19T18:18:33.357Z,45.29
2018-06-19T18:21:03.482Z,45.88
2018-06-19T18:23:33.351Z,45.97
2018-06-19T18:26:03.323Z,46.62
2018-06-19T18:28:34.098Z,46.44
2018-06-19T18:31:03.553Z,46.33
2018-06-19T18:33:33.379Z,46.57
2018-06-19T18:36:04.075Z,47.35
2018-06-19T18:38:34.274Z,47.23
2018-06-19T18:41:04.380Z,47.09
2018-06-19T18:43:34.276Z,47.27
2018-06-19T18:46:04.230Z,47.90
2018-06-19T18:48:34.262Z,47.82
2018-06-19T18:51:04.255Z,47.88
2018-06-19T18:53:34.150Z,48.08
2018-06-19T18:56:04.055Z,48.67
2018-06-19T18:58:34.283Z,49.16
2018-06-19T19:01:04.195Z,49.30
2018-06-19T19:03:34.158Z,49.69
2018-06-19T19:06:03.990Z,50.42
2018-06-19T19:08:35.133Z,50.77
2018-06-19T19:11:06.218Z,51.23
2018-06-19T19:13:36.410Z,51.37
2018-06-19T19:16:12.246Z,51.58
2018-06-19T19:18:47.189Z,52.51
2018-06-19T19:21:17.058Z,53.01
2018-06-19T19:23:48.550Z,53.43
2018-06-19T19:26:23.177Z,53.30
2018-06-19T19:28:58.065Z,53.77
2018-06-19T19:31:27.989Z,54.67
2018-06-19T19:33:57.891Z,54.61
2018-06-19T19:36:32.847Z,55.58
2018-06-19T19:39:08.836Z,55.95
2018-06-19T19:41:38.868Z,56.43
2018-06-19T19:44:08.829Z,56.47
2018-06-19T19:46:43.867Z,57.44
2018-06-19T19:49:14.443Z,57.99
2018-06-19T19:51:44.410Z,58.22
2018-06-19T19:54:15.253Z,58.86
2018-06-19T19:56:50.424Z,59.41
2018-06-19T19:59:21.932Z,59.83
2018-06-19T20:01:53.312Z,60.45
2018-06-19T20:04:23.307Z,61.07
2018-06-19T20:06:53.244Z,61.73
2018-06-19T20:09:23.095Z,61.92
2018-06-19T20:11:52.995Z,62.63
2018-06-19T20:14:22.937Z,62.51
2018-06-19T20:19:43.277Z,62.98
2018-06-19T20:22:13.197Z,63.40
2018-06-19T20:24:43.097Z,63.57
2018-06-19T20:27:13.412Z,64.35
2018-06-19T20:29:44.023Z,64.59
2018-06-19T20:32:15.977Z,64.50
2018-06-19T20:34:45.949Z,64.80
2018-06-19T20:37:16.476Z,65.36
2018-06-19T20:39:46.746Z,66.14
2018-06-19T20:42:19.925Z,65.99
2018-06-19T20:44:49.756Z,66.02
2018-06-19T20:47:19.681Z,66.25
2018-06-19T20:49:50.584Z,66.01
2018-06-19T20:52:21.270Z,66.73
2018-06-19T20:54:51.336Z,66.78
2018-06-19T20:57:21.241Z,66.37
2018-06-19T20:59:51.102Z,67.31
2018-06-19T21:02:20.869Z,67.48
2018-06-19T21:04:50.722Z,67.52
2018-06-19T21:07:21.286Z,67.84
2018-06-19T21:09:51.291Z,68.19
2018-06-19T21:12:22.286Z,68.04
2018-06-19T21:14:52.348Z,68.08
2018-06-19T21:17:22.217Z,68.07
2018-06-19T21:19:52.064Z,68.05
2018-06-19T21:22:22.593Z,68.91
2018-06-19T21:24:52.359Z,68.91
2018-06-19T21:27:22.212Z,68.75
2018-06-19T21:29:52.102Z,68.58
2018-06-19T21:32:21.937Z,69.37
2018-06-19T21:34:52.314Z,70.53
2018-06-19T21:37:23.594Z,70.11
2018-06-19T21:39:53.345Z,70.14
2018-06-19T21:42:23.073Z,69.91
2018-06-19T21:44:52.966Z,69.73
2018-06-19T21:47:22.761Z,69.54
2018-06-19T21:49:52.699Z,69.71
2018-06-19T21:52:22.549Z,70.28
2018-06-19T21:54:52.347Z,69.92
2018-06-19T21:57:22.247Z,70.59
2018-06-19T21:59:52.160Z,71.20
2018-06-19T22:02:27.012Z,71.49
2018-06-19T22:04:56.472Z,72.70
2018-06-19T22:07:26.964Z,72.40
2018-06-19T22:09:56.944Z,72.88
2018-06-19T22:12:27.002Z,73.07
2018-06-19T22:14:57.076Z,72.96
2018-06-19T22:17:27.006Z,72.76
2018-06-19T22:19:58.106Z,72.65
2018-06-19T22:22:28.042Z,73.28
2018-06-19T22:24:58.199Z,73.35
2018-06-19T22:27:28.186Z,73.59
2018-06-19T22:29:58.619Z,73.81
2018-06-19T22:32:28.617Z,73.91
2018-06-19T22:34:58.363Z,74.10
2018-06-19T22:37:28.375Z,73.94
2018-06-19T22:39:58.545Z,74.10
2018-06-19T22:42:28.344Z,74.63
2018-06-19T22:44:58.194Z,74.21
2018-06-19T22:47:28.140Z,74.17
2018-06-19T22:49:58.868Z,74.70
2018-06-19T22:52:28.854Z,74.56
2018-06-19T22:54:59.336Z,75.40
2018-06-19T22:57:29.364Z,75.86
2018-06-19T22:59:59.284Z,76.18
2018-06-19T23:02:29.222Z,76.91
2018-06-19T23:04:59.380Z,76.88
2018-06-19T23:07:31.040Z,76.52
2018-06-19T23:10:01.136Z,76.66
2018-06-19T23:12:30.974Z,77.62
2018-06-19T23:15:00.891Z,78.90
2018-06-19T23:17:30.800Z,78.28
2018-06-19T23:20:00.752Z,78.01
2018-06-19T23:22:31.456Z,78.16
2018-06-19T23:25:01.440Z,78.30
2018-06-19T23:27:31.151Z,79.57
2018-06-19T23:30:01.274Z,79.75
2018-06-19T23:32:31.164Z,80.61
2018-06-19T23:35:01.200Z,80.22
2018-06-19T23:37:31.708Z,79.99
2018-06-19T23:40:02.686Z,80.00
2018-06-19T23:42:33.458Z,80.23
2018-06-19T23:45:04.149Z,79.87
2018-06-19T23:47:34.363Z,79.72
2018-06-19T23:50:04.286Z,80.40
2018-06-19T23:52:34.656Z,80.25
2018-06-19T23:55:04.564Z,79.92
2018-06-19T23:57:35.063Z,79.64
